Portada
METAR-TAF:

METAR-TAF

Aeroports :

Aneityum, Vanuatu

latitud: 20-14-57S, longitud: 169-46-17E, altitud: 2 m

Observació

L'informe es va fer fa 40 minuts, a les 09:00 UTC
Vent 14 kt del Sud-Est
Temperatura 20°C
Humitat 83%
Pressió 1020 hPa
Visibilitat 10 km o més
Núvols disperses a una alçada de 2000 ft
Cel ennuvolat a una alçada de 4000 ft

METAR: NVVA 210900Z 13014KT 9999 SCT020 BKN040 20/17 Q1020 RMK RERA

Hora: 20:40 (09:40 UTC)

Pronòstic

L'informe es va fer fa 11 hores i 20 minuts, a les 22:20 UTC
Pronòstic vàlid del 21 a les 00 UTC al 21 a les 24 UTC
Vent 8 kt del Nord/Nord-Est
Visibilitat 10 km o més
Núvols disperses a una alçada de 2200 ft

TAF: NVVA 202220Z 2100/2124 03008KT 9999 SCT022

Observacions i pronòstics meteorològics de més de 4000 aeroports (METAR i TAF).

Les estacions disponibles són els punts grocs i vermells al mapa.

Posi el ratolí al punt desitjat per veure el nom de l'estació.

Feu clic per veure les observacions i els pronòstics meteorològics.

Per canviar el mapa: feu clic els botons verds amb una creu de color negre per apropar; al botó verd amb un guió per allunyar la imatge; o en les fletxes verdes per a mapes adjacents.


METAR-TAF: